Airfield :
LOGIN :

Register | Disclaimer

   EN    FR    IT 

 










Legend :    VFR   Marginal VFR   IFR   Intensive IFR   Very Intensive IFR
Visi :
Ceiling :
>= 8 km
>= 3000ft
5 to 8 km
1000 to 3000 ft
1500m to 5 km
500 to 1000 ft
800 to 1500m
200 to 500 ft
< 800m
< 200 ft
Symbols :   Thunderstorms  Fog  Heavy snow  Heavy precipitations  Wind > 20 kt
SIGMETs :     Misc.  Thunderstorms  Icing  Turbulence  Mountain Waves  Volcanic Ashes







- Airport Elevation : 436 ft
- IATA code : BTS


LZIB - Bratislava

CURRENT METAR :
  • 121200Z 32009KT 280V350 9999 FEW012 SCT020 BKN054 04/M01 Q1019 NOSIG

EXPIRED METARs :
  • 121130Z 31010KT 9999 FEW012 SCT053 05/M00 Q1019 NOSIG
  • 121100Z 31006KT 9999 FEW012 SCT050 04/M00 Q1019 NOSIG
  • 121030Z 32008KT 9999 FEW012 SCT052 03/M00 Q1019 NOSIG
  • 121000Z 31010KT 9999 FEW012 SCT050 03/M00 Q1019 NOSIG
  • 120930Z 30011KT 9999 FEW012 SCT041 03/M01 Q1019 NOSIG

TAF TAF LZIB
Valid from the 12 at 12:00 until the 13 at 12:00 UTC


121100Z 1212/1312 32008KT 9999 FEW015 SCT050
TEMPO 1212/1215 7000 -RA SCT010 BKN035
BECMG 1220/1222 VRB02KT FEW040 SCT090
TEMPO 1222/1308 3200 BR SCT004 BKN008
PROB40
TEMPO 1302/1307 1200 BCFG BKN003
BECMG 1308/1310 07006KT BKN030
No reported NOTAMs for that airfield.



MET'MAP, your aeronautical weather chart ! - Copyright ORBIFLY December 2007 - Disclaimer

ORBIFLY MET'MAP TEAM :

Programming & Development : Alexandra Zaïnal
Concept & Development : Baudouin d'Aumeries
Co-Development & Prog : Marc-Olivier Méhu
Technical & hardware support : Manuel Goepfert

Contact : metmap@orbifly.com




SOURCES & CREDITS :

   NOAA